Time;durP1;ratioP1;P1;durP2;ratioP2;P2;SDS_P1;SDS_P2;PMS_P1;PMS_P2;Temp;Humidity;BMP_temperature;BMP_pressure;BME280_temperature;BME280_humidity;BME280_pressure;Samples;Min_cycle;Max_cycle;Signal;HPM_P1;HPM_P2
2022/07/10 07:01:02;;;;;;;3.37;1.00;;;19.10;99.90;;;;;;4801541;23;20245;-70
2022/07/10 07:03:28;;;;;;;2.70;0.50;;;19.20;99.90;;;;;;4916080;29;20210;-70
2022/07/10 07:05:55;;;;;;;2.30;0.70;;;19.20;99.90;;;;;;4915515;29;20592;-70
2022/07/10 07:08:22;;;;;;;2.27;0.60;;;19.30;99.90;;;;;;4916095;29;20722;-70
2022/07/10 07:10:49;;;;;;;2.17;0.50;;;19.40;99.90;;;;;;4916975;29;20241;-70
2022/07/10 07:13:15;;;;;;;1.17;0.50;;;19.30;99.90;;;;;;4916817;29;20296;-70
2022/07/10 07:15:48;;;;;;;0.80;0.60;;;19.30;99.90;;;;;;4916808;29;20205;-70
2022/07/10 07:18:16;;;;;;;2.23;0.53;;;19.30;99.90;;;;;;4916346;29;20241;-70
2022/07/10 07:23:28;;;;;;;3.20;0.80;;;19.70;99.90;;;;;;4915989;29;20353;-70
2022/07/10 07:25:55;;;;;;;1.73;0.80;;;19.60;99.90;;;;;;4916056;29;20209;-68
2022/07/10 07:28:22;;;;;;;4.07;0.93;;;19.50;99.90;;;;;;4916076;29;20229;-70
2022/07/10 07:30:49;;;;;;;2.57;0.70;;;19.40;99.90;;;;;;4916275;29;20309;-69
2022/07/10 07:33:18;;;;;;;1.13;0.67;;;19.20;99.90;;;;;;4916366;29;20631;-68
2022/07/10 07:35:45;;;;;;;3.97;0.80;;;19.20;99.90;;;;;;4916441;29;20206;-70
2022/07/10 07:38:12;;;;;;;1.23;0.80;;;19.20;99.90;;;;;;4916044;29;20245;-69
2022/07/10 07:40:39;;;;;;;0.90;0.80;;;19.20;99.90;;;;;;4916568;29;20210;-68
2022/07/10 07:43:06;;;;;;;2.63;0.80;;;19.50;99.90;;;;;;4916579;29;20209;-69
2022/07/10 07:45:33;;;;;;;1.70;0.87;;;19.90;99.90;;;;;;4916576;29;20213;-68
2022/07/10 07:48:01;;;;;;;1.42;0.70;;;20.20;99.90;;;;;;4916267;29;20243;-69
2022/07/10 07:50:32;;;;;;;0.85;0.60;;;20.40;99.90;;;;;;4916803;29;20550;-69
2022/07/10 07:53:08;;;;;;;0.98;0.70;;;21.00;99.90;;;;;;4916672;29;20214;-69
2022/07/10 07:55:35;;;;;;;2.35;1.02;;;21.30;99.90;;;;;;4916784;29;20230;-69
2022/07/10 07:58:04;;;;;;;3.28;0.80;;;21.40;99.90;;;;;;4916294;29;20679;-68
2022/07/10 08:00:31;;;;;;;2.25;1.00;;;21.80;99.90;;;;;;4916576;29;20219;-69
2022/07/10 08:03:00;;;;;;;1.90;1.08;;;22.30;99.90;;;;;;4916261;29;20578;-69
2022/07/10 08:05:28;;;;;;;0.90;0.65;;;23.30;99.90;;;;;;4916344;29;20705;-69
2022/07/10 08:07:58;;;;;;;3.08;0.70;;;24.40;99.90;;;;;;4916401;29;20237;-69
2022/07/10 08:10:27;;;;;;;1.38;0.60;;;25.10;99.90;;;;;;4916235;29;20220;-69
2022/07/10 08:12:54;;;;;;;1.48;0.70;;;25.00;98.80;;;;;;4919016;29;20228;-69
2022/07/10 08:15:23;;;;;;;2.70;0.70;;;25.50;98.30;;;;;;4919781;29;20695;-69
2022/07/10 08:17:50;;;;;;;2.67;0.80;;;25.70;97.70;;;;;;4919399;29;20685;-69
2022/07/10 08:20:17;;;;;;;2.63;0.88;;;26.20;96.60;;;;;;4920058;29;20219;-69
2022/07/10 08:22:48;;;;;;;2.55;0.75;;;26.20;96.00;;;;;;4919759;29;20261;-69
2022/07/10 08:25:15;;;;;;;2.15;0.60;;;26.00;96.10;;;;;;4919753;29;20221;-69
2022/07/10 08:27:42;;;;;;;2.35;0.70;;;25.80;97.60;;;;;;4919427;29;20234;-69
2022/07/10 08:30:10;;;;;;;3.47;0.60;;;25.80;96.20;;;;;;4919762;29;20232;-69
2022/07/10 08:32:38;;;;;;;2.67;0.80;;;26.20;96.30;;;;;;4919070;29;20217;-70
2022/07/10 08:35:06;;;;;;;1.65;0.80;;;26.00;95.90;;;;;;4919323;29;20313;-70
2022/07/10 08:37:38;;;;;;;1.75;0.47;;;26.20;94.60;;;;;;4919363;29;20268;-70
2022/07/10 08:40:09;;;;;;;1.77;0.63;;;25.90;94.80;;;;;;4919473;29;20210;-70
2022/07/10 08:42:36;;;;;;;0.52;0.50;;;25.20;95.10;;;;;;4919667;29;20552;-70
2022/07/10 08:45:03;;;;;;;3.83;0.90;;;24.90;95.40;;;;;;4919356;29;20320;-70
2022/07/10 08:47:31;;;;;;;1.25;0.50;;;24.90;95.90;;;;;;4919089;29;20231;-71
2022/07/10 08:49:58;;;;;;;1.17;0.63;;;24.30;97.10;;;;;;4919044;29;20217;-70
2022/07/10 08:52:28;;;;;;;0.85;0.50;;;24.50;96.30;;;;;;4919387;29;20221;-71
2022/07/10 08:54:55;;;;;;;2.08;0.70;;;24.80;95.40;;;;;;4919159;29;20560;-71
2022/07/10 08:57:24;;;;;;;1.88;0.77;;;24.70;95.40;;;;;;4919124;29;20233;-70
2022/07/10 08:59:58;;;;;;;1.80;0.55;;;24.20;95.90;;;;;;4919105;29;20726;-71
2022/07/10 09:02:28;;;;;;;3.22;0.50;;;24.10;96.20;;;;;;4918707;29;20672;-70
2022/07/10 09:04:55;;;;;;;2.20;0.65;;;24.00;96.70;;;;;;4918024;29;20217;-70
2022/07/10 09:07:22;;;;;;;1.88;0.60;;;24.00;96.00;;;;;;4918967;29;20320;-70
2022/07/10 09:09:54;;;;;;;1.10;0.60;;;23.90;95.80;;;;;;4918882;29;20224;-70
2022/07/10 09:12:23;;;;;;;1.00;0.47;;;23.80;96.70;;;;;;4919313;29;20209;-70
2022/07/10 09:14:50;;;;;;;0.85;0.50;;;24.20;97.00;;;;;;4918738;29;20631;-70
2022/07/10 09:17:18;;;;;;;1.77;0.65;;;24.80;96.60;;;;;;4918263;29;20233;-70
2022/07/10 09:19:45;;;;;;;2.50;0.80;;;25.20;95.50;;;;;;4918431;29;20705;-71
2022/07/10 09:22:13;;;;;;;1.25;0.40;;;25.10;96.30;;;;;;4918930;29;20213;-70
2022/07/10 09:24:41;;;;;;;3.28;0.60;;;24.70;95.70;;;;;;4918093;29;20213;-70
2022/07/10 09:27:09;;;;;;;2.22;0.70;;;24.40;96.90;;;;;;4918407;29;20230;-70
2022/07/10 09:29:48;;;;;;;1.45;0.60;;;24.10;97.30;;;;;;4918511;29;20676;-71
2022/07/10 09:32:16;;;;;;;1.83;0.70;;;24.80;96.70;;;;;;4918081;29;20205;-71
2022/07/10 09:34:44;;;;;;;3.63;0.60;;;25.10;95.60;;;;;;4918364;29;20678;-71
2022/07/10 09:37:26;;;;;;;1.23;0.73;;;25.40;96.40;;;;;;4918334;29;20234;-71
2022/07/10 09:39:55;;;;;;;3.13;0.60;;;25.00;95.70;;;;;;4918220;29;20241;-71
2022/07/10 09:42:27;;;;;;;2.40;0.73;;;25.40;95.00;;;;;;4918133;29;20305;-71
2022/07/10 09:45:18;;;;;;;1.40;0.70;;;25.70;95.30;;;;;;4918248;29;20218;-72
2022/07/10 09:47:46;;;;;;;1.15;0.70;;;26.20;93.70;;;;;;4918169;29;20234;-71
2022/07/10 09:50:24;;;;;;;1.35;0.60;;;26.40;94.90;;;;;;4918328;29;20213;-71
2022/07/10 09:52:53;;;;;;;0.73;0.50;;;26.40;94.60;;;;;;4918231;29;20216;-69
2022/07/10 09:55:21;;;;;;;1.88;0.70;;;26.00;96.10;;;;;;4918189;29;20677;-69
2022/07/10 09:57:55;;;;;;;1.90;0.80;;;25.80;95.80;;;;;;4918380;29;20240;-69
2022/07/10 10:00:26;;;;;;;1.55;0.60;;;25.20;96.60;;;;;;4918213;29;20217;-70
2022/07/10 10:02:56;;;;;;;2.10;0.90;;;25.10;96.90;;;;;;4917835;29;20205;-70
2022/07/10 10:05:33;;;;;;;1.58;0.50;;;25.30;96.00;;;;;;4918132;29;20214;-70
2022/07/10 10:08:03;;;;;;;1.92;0.80;;;26.00;95.20;;;;;;4918110;29;20225;-71
2022/07/10 10:10:31;;;;;;;2.17;0.77;;;26.20;94.30;;;;;;4918213;29;20217;-70
2022/07/10 10:13:02;;;;;;;1.65;0.60;;;26.20;94.30;;;;;;4918032;29;20304;-70
2022/07/10 10:15:32;;;;;;;1.80;0.73;;;26.10;94.80;;;;;;4917804;29;20747;-70
2022/07/10 10:17:59;;;;;;;1.42;0.75;;;25.90;94.50;;;;;;4917448;29;20229;-70
2022/07/10 10:20:41;;;;;;;2.75;0.80;;;25.30;95.20;;;;;;4918092;29;20216;-70
2022/07/10 10:23:11;;;;;;;1.45;0.80;;;24.90;95.90;;;;;;4917826;29;20213;-70
2022/07/10 10:25:38;;;;;;;1.60;0.82;;;24.60;96.80;;;;;;4917701;29;20206;-70
2022/07/10 10:28:09;;;;;;;1.52;0.80;;;24.80;95.90;;;;;;4917460;29;20256;-70
2022/07/10 10:30:40;;;;;;;1.35;0.80;;;24.60;96.80;;;;;;4917687;29;20248;-70
2022/07/10 10:33:42;;;;;;;1.23;0.90;;;24.40;97.20;;;;;;4917702;29;20213;-70
2022/07/10 10:36:10;;;;;;;1.13;0.73;;;24.40;96.30;;;;;;4916711;29;20227;-70
2022/07/10 10:39:05;;;;;;;1.40;0.80;;;23.80;97.70;;;;;;4917270;29;20234;-70
2022/07/10 10:41:38;;;;;;;1.27;0.95;;;23.80;97.60;;;;;;4917558;29;20209;-70
2022/07/10 10:44:35;;;;;;;2.05;1.08;;;23.80;98.60;;;;;;4917708;29;20334;-70
2022/07/10 10:47:07;;;;;;;2.63;0.95;;;23.70;98.70;;;;;;4917169;29;20209;-70
2022/07/10 10:49:54;;;;;;;2.30;0.93;;;23.70;99.30;;;;;;4917762;29;20231;-70
2022/07/10 10:52:21;;;;;;;1.30;0.88;;;24.00;98.60;;;;;;4917590;29;20292;-70
2022/07/10 10:55:07;;;;;;;4.43;1.08;;;24.30;97.70;;;;;;4917258;29;20573;-70
2022/07/10 10:57:44;;;;;;;1.95;1.00;;;24.50;97.80;;;;;;4916975;29;20240;-69
2022/07/10 11:00:16;;;;;;;1.83;1.08;;;24.40;97.20;;;;;;4917192;29;20292;-69
2022/07/10 11:02:44;;;;;;;1.90;0.90;;;24.30;97.40;;;;;;4916936;29;20665;-69
2022/07/10 11:05:41;;;;;;;2.08;0.82;;;24.20;97.90;;;;;;4916675;29;20569;-70
2022/07/10 11:08:08;;;;;;;2.05;0.90;;;24.00;98.30;;;;;;4916607;29;20704;-69
2022/07/10 11:10:36;;;;;;;1.83;0.88;;;23.90;99.50;;;;;;4916898;29;20683;-70
2022/07/10 11:13:04;;;;;;;1.83;0.90;;;24.10;98.10;;;;;;4916933;29;20213;-71
2022/07/10 11:15:32;;;;;;;1.70;1.05;;;24.40;98.20;;;;;;4916807;29;20210;-70
2022/07/10 11:18:05;;;;;;;3.50;1.20;;;24.30;97.40;;;;;;4916366;29;20756;-70
2022/07/10 11:20:33;;;;;;;1.10;0.93;;;24.30;98.20;;;;;;4916369;29;20237;-70
2022/07/10 11:23:24;;;;;;;1.33;1.05;;;23.90;98.20;;;;;;4916660;29;20216;-70
2022/07/10 11:26:01;;;;;;;2.72;1.00;;;23.80;98.70;;;;;;4908512;29;20217;-70
2022/07/10 11:28:42;;;;;;;2.97;1.00;;;24.00;98.60;;;;;;4916470;29;20229;-70
2022/07/10 11:31:08;;;;;;;2.72;1.00;;;24.30;99.50;;;;;;4916420;29;20269;-70
2022/07/10 11:33:43;;;;;;;1.42;0.85;;;24.50;97.70;;;;;;4910039;29;20685;-71
2022/07/10 11:36:15;;;;;;;1.25;0.93;;;24.70;97.60;;;;;;4914204;29;20216;-71
2022/07/10 11:38:42;;;;;;;2.55;1.00;;;24.50;97.30;;;;;;4906278;29;20234;-72
2022/07/10 11:41:21;;;;;;;2.00;1.30;;;24.70;97.60;;;;;;4897229;29;20210;-72
2022/07/10 11:43:49;;;;;;;3.65;1.15;;;24.60;97.50;;;;;;4897551;29;20212;-72
2022/07/10 11:46:16;;;;;;;2.40;1.30;;;24.60;97.00;;;;;;4897527;29;20210;-71
2022/07/10 11:48:45;;;;;;;1.48;1.00;;;24.70;98.10;;;;;;4900870;29;20234;-71
2022/07/10 11:51:24;;;;;;;1.80;0.82;;;24.50;98.00;;;;;;4913366;29;20568;-72
2022/07/10 11:54:00;;;;;;;0.82;0.80;;;24.90;98.50;;;;;;4900803;29;20671;-71
2022/07/10 11:56:28;;;;;;;1.02;0.93;;;24.90;98.30;;;;;;4901111;29;20210;-70
2022/07/10 11:58:59;;;;;;;1.58;0.80;;;25.30;97.10;;;;;;4901108;29;20238;-72
2022/07/10 12:01:26;;;;;;;4.40;1.00;;;25.40;97.40;;;;;;4901237;29;20218;-72
2022/07/10 12:04:02;;;;;;;2.33;0.90;;;25.30;96.90;;;;;;4919224;29;20241;-73
2022/07/10 12:06:30;;;;;;;0.85;0.77;;;25.10;97.50;;;;;;4919510;29;20217;-71
2022/07/10 12:09:04;;;;;;;1.10;0.90;;;25.00;98.00;;;;;;4919748;29;20784;-71
2022/07/10 12:11:31;;;;;;;2.50;0.90;;;25.20;97.00;;;;;;4920100;29;20205;-71
2022/07/10 12:14:14;;;;;;;3.38;1.00;;;25.40;97.40;;;;;;4919656;29;20219;-71
2022/07/10 12:16:43;;;;;;;1.17;0.95;;;25.40;97.50;;;;;;4919341;29;20241;-70
2022/07/10 12:19:13;;;;;;;1.23;1.05;;;25.40;96.90;;;;;;4919801;29;20598;-71
2022/07/10 12:21:41;;;;;;;1.27;0.70;;;25.50;96.20;;;;;;4919380;29;20657;-70
2022/07/10 12:24:09;;;;;;;1.52;0.95;;;25.20;97.70;;;;;;4919276;29;20216;-71
2022/07/10 12:26:38;;;;;;;2.75;0.77;;;24.80;97.70;;;;;;4919309;29;20240;-71
2022/07/10 12:29:05;;;;;;;2.22;0.80;;;24.70;97.50;;;;;;4919083;29;20244;-71
2022/07/10 12:31:34;;;;;;;3.33;1.10;;;24.90;98.00;;;;;;4919263;29;20300;-71
2022/07/10 12:34:03;;;;;;;1.15;0.75;;;24.80;97.60;;;;;;4919540;29;20210;-71
2022/07/10 12:36:44;;;;;;;0.70;0.70;;;24.60;97.40;;;;;;4919466;29;20213;-71
2022/07/10 12:39:12;;;;;;;1.15;0.80;;;24.10;97.80;;;;;;4919060;29;20237;-71
2022/07/10 12:41:54;;;;;;;1.10;0.82;;;24.00;98.20;;;;;;4919314;29;20220;-71
2022/07/10 12:44:32;;;;;;;2.63;0.80;;;23.90;99.70;;;;;;4919325;29;20214;-71
2022/07/10 12:47:02;;;;;;;1.00;0.90;;;24.00;99.40;;;;;;4918720;29;20686;-71
2022/07/10 12:49:29;;;;;;;2.75;0.90;;;24.10;98.40;;;;;;4919431;29;20205;-71
2022/07/10 12:51:57;;;;;;;1.45;0.90;;;23.90;98.70;;;;;;4919119;29;20224;-71
2022/07/10 12:54:37;;;;;;;1.33;0.70;;;23.90;98.90;;;;;;4919058;29;20218;-71
2022/07/10 12:57:06;;;;;;;0.80;0.65;;;23.50;98.80;;;;;;4919460;29;20716;-71
2022/07/10 12:59:34;;;;;;;1.08;0.70;;;23.50;99.40;;;;;;4917735;29;20233;-71
2022/07/10 13:02:16;;;;;;;1.13;0.70;;;23.50;99.00;;;;;;4918310;29;20715;-70
2022/07/10 13:04:53;;;;;;;1.15;0.70;;;23.60;98.90;;;;;;4918392;29;20221;-69
2022/07/10 13:07:22;;;;;;;4.15;0.70;;;23.70;99.40;;;;;;4915759;29;20233;-66
2022/07/10 13:09:50;;;;;;;1.60;0.80;;;23.80;98.60;;;;;;4906348;29;20218;-67
2022/07/10 13:12:17;;;;;;;0.95;0.80;;;23.40;99.20;;;;;;4898780;29;20214;-66
2022/07/10 13:14:58;;;;;;;2.13;0.80;;;23.40;99.50;;;;;;4898598;29;20210;-66
2022/07/10 13:17:25;;;;;;;2.05;0.82;;;23.30;99.30;;;;;;4898218;29;20261;-67
2022/07/10 13:19:52;;;;;;;3.45;0.80;;;23.40;99.40;;;;;;4898353;29;20245;-66
2022/07/10 13:22:20;;;;;;;2.08;0.70;;;23.50;98.80;;;;;;4898468;29;20726;-65
2022/07/10 13:24:47;;;;;;;1.48;0.85;;;23.40;98.40;;;;;;4898240;29;20574;-67
2022/07/10 13:27:14;;;;;;;1.50;0.82;;;23.40;98.50;;;;;;4898217;29;20337;-68
2022/07/10 13:29:41;;;;;;;2.47;1.00;;;23.50;99.00;;;;;;4898629;29;20570;-67
2022/07/10 13:32:09;;;;;;;0.70;0.60;;;23.60;99.60;;;;;;4899236;29;20210;-66
2022/07/10 13:34:36;;;;;;;2.60;1.15;;;23.70;98.80;;;;;;4899668;29;20261;-73
2022/07/10 13:37:03;;;;;;;1.48;0.85;;;23.80;99.30;;;;;;4899218;29;20206;-68
2022/07/10 13:39:32;;;;;;;1.02;0.73;;;23.70;98.90;;;;;;4899279;29;20238;-67
2022/07/10 13:41:59;;;;;;;1.35;0.65;;;23.80;98.70;;;;;;4899367;29;20695;-66
2022/07/10 13:44:26;;;;;;;1.52;0.70;;;23.90;98.50;;;;;;4908864;29;20244;-65
2022/07/10 13:46:53;;;;;;;1.52;0.82;;;24.00;98.80;;;;;;4916733;29;20232;-65
2022/07/10 13:49:20;;;;;;;1.42;0.65;;;24.00;98.00;;;;;;4917806;29;20214;-65
2022/07/10 13:51:46;;;;;;;0.75;0.52;;;24.00;98.30;;;;;;4918041;29;20213;-67
2022/07/10 13:54:13;;;;;;;2.40;1.02;;;24.10;98.70;;;;;;4918231;29;20334;-65
2022/07/10 13:56:43;;;;;;;2.10;0.65;;;24.10;98.40;;;;;;4915417;29;20214;-65
2022/07/10 13:59:10;;;;;;;1.23;0.55;;;24.30;98.60;;;;;;4915687;29;20209;-65
2022/07/10 14:01:36;;;;;;;1.88;0.60;;;24.60;98.20;;;;;;4917809;29;20224;-65
2022/07/10 14:04:03;;;;;;;1.80;0.73;;;24.90;97.80;;;;;;4918148;29;20206;-64
2022/07/10 14:06:30;;;;;;;1.63;0.50;;;25.20;98.20;;;;;;4917077;29;20213;-65
2022/07/10 14:08:57;;;;;;;1.23;0.50;;;25.20;97.50;;;;;;4915516;29;20267;-66
2022/07/10 14:11:24;;;;;;;2.00;0.60;;;25.20;97.80;;;;;;4917483;29;20217;-65
2022/07/10 14:13:52;;;;;;;1.23;0.52;;;25.00;97.40;;;;;;4915250;29;20221;-69
2022/07/10 14:16:19;;;;;;;1.35;0.50;;;25.10;97.40;;;;;;4916547;29;20637;-71
2022/07/10 14:18:46;;;;;;;2.80;0.70;;;25.30;97.10;;;;;;4917363;29;20233;-66
2022/07/10 14:21:13;;;;;;;1.60;0.63;;;25.50;97.30;;;;;;4917516;29;20268;-74
2022/07/10 14:23:43;;;;;;;1.10;0.50;;;25.70;97.20;;;;;;4916939;29;20217;-69
2022/07/10 14:26:10;;;;;;;0.82;0.60;;;25.80;96.00;;;;;;4916230;29;20208;-68
2022/07/10 14:28:37;;;;;;;0.88;0.50;;;25.70;96.00;;;;;;4917807;29;20592;-68
2022/07/10 14:31:07;;;;;;;1.27;0.68;;;25.60;96.30;;;;;;4917559;29;20209;-66
2022/07/10 14:33:35;;;;;;;1.08;0.55;;;25.50;96.70;;;;;;4917477;29;20688;-72
2022/07/10 14:36:02;;;;;;;0.90;0.43;;;25.50;96.90;;;;;;4916133;29;20206;-68
2022/07/10 14:38:29;;;;;;;0.82;0.40;;;25.20;97.30;;;;;;4916113;29;20229;-69
2022/07/10 14:40:56;;;;;;;0.50;0.50;;;25.20;96.70;;;;;;4916035;29;20665;-75
2022/07/10 14:43:24;;;;;;;2.83;0.60;;;25.50;97.50;;;;;;4917359;29;20214;-74
2022/07/10 14:45:51;;;;;;;0.98;0.60;;;25.70;97.50;;;;;;4914366;29;20312;-68
2022/07/10 14:48:19;;;;;;;1.05;0.47;;;25.80;96.30;;;;;;4916854;29;20605;-68
2022/07/10 14:50:46;;;;;;;1.15;0.60;;;25.80;95.80;;;;;;4914005;29;20213;-72
2022/07/10 14:53:13;;;;;;;0.75;0.60;;;25.70;96.60;;;;;;4916643;29;20222;-69
2022/07/10 14:55:40;;;;;;;2.28;0.52;;;25.40;96.30;;;;;;4916569;29;20214;-71
2022/07/10 14:58:07;;;;;;;1.05;0.50;;;25.10;96.80;;;;;;4914317;29;20312;-69
2022/07/10 15:00:34;;;;;;;1.30;0.55;;;25.10;96.90;;;;;;4914651;29;20244;-65
2022/07/10 15:03:01;;;;;;;1.10;0.57;;;25.20;96.30;;;;;;4916939;29;20217;-67
2022/07/10 15:05:30;;;;;;;0.90;0.50;;;25.10;96.40;;;;;;4915969;29;20274;-67
2022/07/10 15:07:56;;;;;;;3.15;0.60;;;24.90;96.70;;;;;;4916126;29;20225;-65
2022/07/10 15:10:24;;;;;;;0.80;0.40;;;24.70;96.50;;;;;;4916886;29;20296;-66
2022/07/10 15:12:51;;;;;;;2.58;0.50;;;24.70;97.10;;;;;;4916098;29;20213;-67
2022/07/10 15:15:18;;;;;;;2.45;0.73;;;24.50;96.60;;;;;;4915031;29;20210;-70
2022/07/10 15:17:45;;;;;;;1.52;0.63;;;24.20;97.30;;;;;;4913579;29;20236;-65
2022/07/10 15:20:13;;;;;;;2.95;0.45;;;24.20;97.50;;;;;;4909074;29;20232;-66
2022/07/10 15:22:41;;;;;;;1.42;0.55;;;24.10;97.90;;;;;;4908533;29;20205;-69
2022/07/10 15:25:09;;;;;;;1.48;0.60;;;24.30;97.80;;;;;;4911250;29;20569;-70
2022/07/10 15:27:36;;;;;;;0.70;0.45;;;24.40;97.60;;;;;;4897140;29;20236;-65
2022/07/10 15:30:03;;;;;;;2.40;0.60;;;24.40;97.40;;;;;;4896215;29;20227;-69
2022/07/10 15:32:30;;;;;;;1.58;0.50;;;24.70;96.50;;;;;;4911444;29;20691;-70
2022/07/10 15:34:59;;;;;;;0.50;0.40;;;24.90;96.80;;;;;;4915203;29;20236;-66
2022/07/10 15:37:26;;;;;;;0.70;0.50;;;25.10;96.90;;;;;;4914452;29;20240;-65
2022/07/10 15:39:55;;;;;;;2.22;0.60;;;25.00;96.60;;;;;;4913848;29;20248;-65
2022/07/10 15:42:21;;;;;;;0.50;0.50;;;25.10;96.00;;;;;;4916445;29;20278;-65
2022/07/10 15:44:48;;;;;;;0.60;0.55;;;25.20;96.60;;;;;;4912821;29;20241;-70
2022/07/10 15:47:16;;;;;;;0.73;0.60;;;25.30;96.10;;;;;;4913202;29;20221;-73
2022/07/10 15:49:43;;;;;;;3.78;0.70;;;25.20;95.10;;;;;;4915286;29;20201;-72
2022/07/10 15:52:10;;;;;;;0.65;0.50;;;25.00;95.70;;;;;;4916286;29;20305;-72
2022/07/10 15:57:41;;;;;;;2.05;0.50;;;24.80;96.10;;;;;;4902741;29;20319;-70
2022/07/10 16:00:10;;;;;;;1.02;0.45;;;24.70;96.70;;;;;;4914777;29;20272;-67
2022/07/10 16:02:37;;;;;;;0.50;0.43;;;24.80;96.80;;;;;;4913088;29;20213;-70
2022/07/10 16:05:05;;;;;;;0.70;0.50;;;24.80;96.50;;;;;;4913490;29;20756;-68
2022/07/10 16:07:32;;;;;;;1.25;0.60;;;24.90;96.30;;;;;;4915324;29;20230;-72
2022/07/10 16:09:59;;;;;;;0.98;0.68;;;24.90;96.10;;;;;;4916541;29;20609;-71
2022/07/10 16:12:26;;;;;;;1.20;0.43;;;24.90;95.90;;;;;;4914542;29;20245;-72
2022/07/10 16:14:54;;;;;;;0.80;0.50;;;24.90;96.30;;;;;;4915426;29;20209;-68
2022/07/10 16:17:21;;;;;;;0.70;0.40;;;24.90;97.00;;;;;;4915822;29;20287;-72
2022/07/10 16:19:48;;;;;;;0.80;0.50;;;24.90;96.90;;;;;;4915593;29;20264;-70
2022/07/10 16:22:15;;;;;;;1.38;0.52;;;25.10;96.30;;;;;;4916235;29;20216;-73
2022/07/10 16:27:22;;;;;;;0.95;0.50;;;25.00;96.20;;;;;;4899345;29;20683;-67
2022/07/10 16:29:49;;;;;;;0.73;0.63;;;25.00;96.10;;;;;;4911946;29;20313;-72
2022/07/10 16:32:19;;;;;;;1.02;0.60;;;24.80;96.40;;;;;;4908978;29;20198;-65
2022/07/10 16:34:46;;;;;;;0.95;0.40;;;24.70;96.30;;;;;;4917509;29;20256;-71
2022/07/10 16:37:13;;;;;;;0.50;0.30;;;24.60;96.60;;;;;;4919635;29;20225;-64
2022/07/10 16:39:40;;;;;;;1.95;0.43;;;24.30;96.10;;;;;;4917799;29;20728;-71
2022/07/10 16:42:07;;;;;;;0.85;0.60;;;24.20;95.90;;;;;;4919031;29;20237;-69
2022/07/10 16:44:33;;;;;;;0.63;0.40;;;24.00;96.60;;;;;;4918890;29;20213;-67
2022/07/10 16:47:00;;;;;;;0.85;0.40;;;24.00;96.40;;;;;;4918994;29;20206;-67
2022/07/10 16:49:28;;;;;;;1.30;0.50;;;23.90;96.30;;;;;;4919057;29;20577;-65
2022/07/10 16:51:55;;;;;;;0.70;0.40;;;23.90;96.70;;;;;;4919280;29;20206;-66
2022/07/10 16:54:22;;;;;;;2.47;0.60;;;23.80;96.40;;;;;;4919008;29;20213;-67
2022/07/10 16:56:49;;;;;;;1.00;0.52;;;23.60;96.70;;;;;;4918765;29;20210;-68
2022/07/10 16:59:16;;;;;;;0.63;0.50;;;23.50;96.80;;;;;;4918647;29;20308;-72
2022/07/10 17:01:42;;;;;;;1.65;0.60;;;23.50;97.50;;;;;;4918436;29;20237;-66
2022/07/10 17:04:09;;;;;;;0.90;0.40;;;23.60;96.80;;;;;;4919067;29;20217;-67
2022/07/10 17:06:38;;;;;;;0.73;0.40;;;23.70;96.50;;;;;;4918908;29;20764;-72
2022/07/10 17:09:04;;;;;;;1.05;0.45;;;23.70;96.50;;;;;;4919183;29;20237;-69
2022/07/10 17:11:31;;;;;;;0.55;0.47;;;23.70;96.30;;;;;;4919083;29;20252;-68
2022/07/10 17:13:58;;;;;;;0.88;0.40;;;23.60;96.80;;;;;;4916312;29;20209;-69
2022/07/10 17:16:25;;;;;;;0.65;0.40;;;23.70;96.50;;;;;;4918749;29;20210;-67
2022/07/10 17:18:54;;;;;;;0.85;0.40;;;23.50;96.70;;;;;;4917155;29;20232;-64
2022/07/10 17:21:22;;;;;;;1.15;0.57;;;23.50;97.20;;;;;;4913794;29;20332;-71
2022/07/10 17:23:50;;;;;;;1.00;0.50;;;23.50;96.70;;;;;;4917966;29;20214;-70
2022/07/10 17:26:17;;;;;;;2.15;0.60;;;23.70;96.80;;;;;;4918249;29;20216;-70
2022/07/10 17:28:44;;;;;;;1.17;0.50;;;23.70;96.60;;;;;;4918270;29;20701;-68
2022/07/10 17:31:11;;;;;;;1.13;0.52;;;23.50;96.10;;;;;;4917575;29;20212;-64
2022/07/10 17:33:37;;;;;;;0.88;0.40;;;23.50;96.20;;;;;;4917422;29;20210;-69
2022/07/10 17:36:04;;;;;;;0.80;0.40;;;23.60;96.20;;;;;;4918513;29;20323;-65
2022/07/10 17:38:31;;;;;;;1.13;0.65;;;23.60;96.50;;;;;;4917979;29;20255;-71
2022/07/10 17:40:59;;;;;;;1.00;0.45;;;23.60;96.00;;;;;;4916857;29;20239;-71
2022/07/10 17:43:26;;;;;;;0.50;0.43;;;23.60;96.10;;;;;;4918088;29;20205;-65
2022/07/10 17:45:53;;;;;;;0.63;0.50;;;23.50;96.30;;;;;;4913172;29;20205;-70
2022/07/10 17:48:20;;;;;;;0.63;0.43;;;23.40;96.50;;;;;;4916256;29;20241;-69
2022/07/10 17:50:47;;;;;;;0.50;0.45;;;23.40;96.40;;;;;;4915593;29;20218;-65
2022/07/10 17:53:13;;;;;;;0.57;0.30;;;23.40;96.30;;;;;;4916965;29;20214;-66
2022/07/10 17:55:40;;;;;;;0.85;0.40;;;23.30;96.40;;;;;;4916862;29;20220;-71
2022/07/10 17:58:09;;;;;;;3.38;0.60;;;23.20;96.60;;;;;;4917635;29;20236;-68
2022/07/10 18:00:35;;;;;;;0.80;0.35;;;23.20;96.70;;;;;;4916199;29;20609;-71
2022/07/10 18:03:02;;;;;;;2.13;0.57;;;23.20;96.40;;;;;;4916287;29;20210;-69
2022/07/10 18:05:29;;;;;;;1.48;0.50;;;23.30;96.20;;;;;;4916996;29;20213;-68
2022/07/10 18:07:56;;;;;;;1.65;0.50;;;23.20;96.30;;;;;;4916697;29;20233;-69
2022/07/10 18:10:23;;;;;;;0.88;0.50;;;23.00;96.70;;;;;;4916606;29;20220;-66
2022/07/10 18:12:50;;;;;;;2.85;0.55;;;23.10;96.60;;;;;;4916606;29;20632;-65
2022/07/10 18:15:18;;;;;;;1.55;0.60;;;23.10;96.60;;;;;;4917680;29;20209;-69
2022/07/10 18:17:48;;;;;;;0.52;0.43;;;23.00;96.70;;;;;;4916834;29;20316;-67
2022/07/10 18:20:16;;;;;;;1.85;0.50;;;23.00;96.90;;;;;;4912415;29;20729;-69
2022/07/10 18:22:43;;;;;;;1.13;0.60;;;23.00;96.40;;;;;;4899786;29;20246;-76
2022/07/10 18:25:10;;;;;;;1.10;0.68;;;22.90;96.60;;;;;;4898502;29;20210;-73
2022/07/10 18:27:37;;;;;;;1.50;0.70;;;22.90;96.70;;;;;;4898685;29;20546;-74
2022/07/10 18:30:05;;;;;;;0.60;0.40;;;22.90;96.90;;;;;;4898722;29;20264;-78
2022/07/10 18:35:17;;;;;;;0.98;0.60;;;22.60;97.50;;;;;;4898115;29;20230;-79
2022/07/10 18:37:44;;;;;;;1.73;0.50;;;22.70;97.50;;;;;;4898299;29;20602;-74
2022/07/10 18:40:11;;;;;;;0.57;0.43;;;22.70;97.90;;;;;;4897794;29;20213;-81
2022/07/10 18:42:38;;;;;;;0.55;0.40;;;22.80;97.70;;;;;;4898460;29;20302;-72
2022/07/10 18:45:06;;;;;;;1.48;0.75;;;22.70;98.10;;;;;;4897942;29;20657;-74
2022/07/10 18:47:34;;;;;;;1.05;0.50;;;22.60;97.80;;;;;;4897753;29;20230;-74
2022/07/10 18:50:01;;;;;;;1.25;0.50;;;22.60;97.80;;;;;;4897633;29;20206;-68
2022/07/10 18:52:28;;;;;;;1.27;0.47;;;22.60;97.90;;;;;;4897555;29;20674;-81
2022/07/10 18:54:55;;;;;;;1.00;0.80;;;22.60;98.20;;;;;;4897837;29;20733;-70
2022/07/10 18:57:22;;;;;;;1.90;0.60;;;22.30;98.20;;;;;;4896760;29;20320;-72
2022/07/10 18:59:49;;;;;;;1.33;0.50;;;22.30;98.10;;;;;;4897711;29;20217;-77
2022/07/10 19:02:16;;;;;;;0.80;0.50;;;22.40;98.10;;;;;;4897619;29;20246;-75
2022/07/10 19:04:44;;;;;;;1.20;0.57;;;22.40;97.80;;;;;;4898039;29;20213;-66
2022/07/10 19:07:11;;;;;;;0.93;0.55;;;22.50;97.90;;;;;;4903723;29;20239;-76
2022/07/10 19:09:38;;;;;;;0.77;0.52;;;22.40;97.80;;;;;;4903500;29;20270;-66
2022/07/10 19:12:06;;;;;;;2.95;0.70;;;22.50;97.80;;;;;;4904786;29;20308;-65
2022/07/10 19:14:33;;;;;;;1.35;0.52;;;22.40;98.10;;;;;;4909105;29;20224;-66
2022/07/10 19:17:00;;;;;;;1.73;0.70;;;22.40;98.10;;;;;;4903111;29;20220;-69
2022/07/10 19:19:27;;;;;;;0.52;0.47;;;22.40;98.30;;;;;;4910370;29;20661;-65
2022/07/10 19:21:55;;;;;;;0.98;0.68;;;22.30;98.80;;;;;;4908855;29;20244;-73
2022/07/10 19:24:22;;;;;;;0.52;0.43;;;22.20;98.60;;;;;;4906878;29;20221;-67
2022/07/10 19:26:50;;;;;;;2.05;0.50;;;22.30;98.40;;;;;;4907153;29;20217;-65
2022/07/10 19:29:17;;;;;;;0.80;0.43;;;22.30;98.40;;;;;;4912276;29;20736;-65
2022/07/10 19:31:44;;;;;;;1.65;0.60;;;22.20;98.70;;;;;;4908436;29;20214;-65
2022/07/10 19:34:12;;;;;;;1.63;0.80;;;22.10;98.70;;;;;;4907045;29;20213;-73
2022/07/10 19:36:39;;;;;;;0.70;0.50;;;22.10;98.60;;;;;;4909277;29;20703;-65
2022/07/10 19:39:09;;;;;;;0.50;0.40;;;22.10;99.10;;;;;;4910826;29;20329;-70
2022/07/10 19:41:36;;;;;;;0.77;0.50;;;21.90;99.10;;;;;;4902819;29;20277;-72
2022/07/10 19:44:03;;;;;;;3.30;0.95;;;21.90;99.30;;;;;;4910962;29;20639;-65
2022/07/10 19:46:30;;;;;;;2.35;1.35;;;21.70;99.90;;;;;;4910113;29;20637;-69
2022/07/10 19:48:58;;;;;;;0.47;0.40;;;21.70;99.90;;;;;;4913694;29;20289;-64
2022/07/10 19:51:25;;;;;;;1.63;0.40;;;21.50;99.90;;;;;;4908455;29;20218;-66
2022/07/10 19:53:52;;;;;;;0.40;0.32;;;21.50;99.90;;;;;;4908906;29;20217;-66
2022/07/10 19:56:20;;;;;;;0.52;0.47;;;21.50;99.90;;;;;;4907944;29;20736;-65
2022/07/10 19:58:47;;;;;;;1.50;0.60;;;21.50;99.90;;;;;;4901431;29;20262;-66
2022/07/10 20:01:14;;;;;;;6.53;2.72;;;21.60;99.80;;;;;;4907909;29;20225;-69
2022/07/10 20:03:41;;;;;;;1.42;0.70;;;21.50;99.90;;;;;;4910095;29;20298;-65
2022/07/10 20:06:09;;;;;;;1.45;0.50;;;21.50;99.90;;;;;;4910756;29;20293;-76
2022/07/10 20:08:35;;;;;;;0.70;0.60;;;21.40;99.90;;;;;;4910134;29;20265;-65